createdAt,value
2023-02-25T00:05:22.530Z,2.20
2023-02-25T00:07:51.353Z,2.75
2023-02-25T00:10:19.121Z,2.30
2023-02-25T00:12:49.030Z,2.45
2023-02-25T00:15:16.491Z,2.42
2023-02-25T00:17:44.136Z,2.15
2023-02-25T00:20:15.054Z,2.35
2023-02-25T00:22:43.008Z,2.95
2023-02-25T00:25:10.752Z,2.80
2023-02-25T00:27:38.527Z,2.88
2023-02-25T00:30:06.415Z,2.95
2023-02-25T00:32:34.785Z,2.83
2023-02-25T00:35:02.534Z,2.70
2023-02-25T00:37:31.183Z,2.92
2023-02-25T00:39:58.663Z,2.78
2023-02-25T00:42:27.972Z,2.47
2023-02-25T00:44:55.570Z,3.47
2023-02-25T00:47:23.732Z,3.03
2023-02-25T00:49:52.488Z,2.60
2023-02-25T00:52:19.996Z,3.05
2023-02-25T00:54:49.089Z,3.63
2023-02-25T00:57:17.184Z,3.13
2023-02-25T00:59:45.038Z,2.92
2023-02-25T01:02:14.617Z,3.30
2023-02-25T01:04:44.580Z,2.72
2023-02-25T01:07:12.409Z,3.05
2023-02-25T01:09:40.145Z,2.95
2023-02-25T01:12:08.696Z,3.08
2023-02-25T01:14:36.224Z,3.08
2023-02-25T01:17:05.093Z,2.67
2023-02-25T01:19:32.914Z,4.00
2023-02-25T01:22:00.411Z,2.50
2023-02-25T01:24:29.580Z,2.92
2023-02-25T01:26:59.704Z,3.95
2023-02-25T01:29:28.871Z,3.67
2023-02-25T01:31:57.941Z,3.63
2023-02-25T01:34:26.962Z,3.42
2023-02-25T01:36:54.951Z,3.38
2023-02-25T01:39:26.264Z,2.78
2023-02-25T01:41:55.058Z,2.25
2023-02-25T01:44:23.013Z,3.22
2023-02-25T01:46:53.757Z,2.90
2023-02-25T01:49:26.110Z,2.03
2023-02-25T01:51:55.950Z,2.63
2023-02-25T01:54:25.036Z,3.55
2023-02-25T01:56:55.585Z,2.03
2023-02-25T01:59:27.807Z,2.08
2023-02-25T02:01:56.772Z,2.38
2023-02-25T02:04:27.140Z,2.38
2023-02-25T02:06:59.650Z,1.70
2023-02-25T02:09:28.768Z,1.80
2023-02-25T02:12:00.926Z,2.20
2023-02-25T02:14:35.312Z,2.20
2023-02-25T02:17:30.039Z,2.05
2023-02-25T02:19:57.666Z,2.30
2023-02-25T02:22:29.682Z,2.67
2023-02-25T02:25:32.952Z,3.13
2023-02-25T02:28:03.568Z,2.80
2023-02-25T02:30:53.560Z,2.08
2023-02-25T02:33:44.168Z,2.08
2023-02-25T02:36:30.487Z,2.40
2023-02-25T02:39:02.465Z,2.20
2023-02-25T02:41:37.670Z,2.78
2023-02-25T02:44:10.537Z,3.40
2023-02-25T02:46:40.504Z,2.47
2023-02-25T02:49:10.246Z,2.17
2023-02-25T02:51:45.796Z,2.83
2023-02-25T02:54:14.669Z,2.22
2023-02-25T02:56:44.841Z,2.22
2023-02-25T02:59:24.880Z,2.90
2023-02-25T03:01:59.283Z,3.00
2023-02-25T03:04:30.533Z,2.38
2023-02-25T03:07:00.557Z,2.47
2023-02-25T03:09:35.575Z,3.00
2023-02-25T03:12:09.972Z,2.30
2023-02-25T03:14:38.683Z,2.72
2023-02-25T03:17:06.425Z,2.40
2023-02-25T03:19:40.554Z,3.17
2023-02-25T03:22:16.312Z,2.90
2023-02-25T03:25:00.131Z,3.28
2023-02-25T03:27:34.606Z,2.40
2023-02-25T03:30:07.180Z,3.60
2023-02-25T03:32:37.494Z,2.42
2023-02-25T03:37:33.749Z,2.30
2023-02-25T03:40:12.629Z,2.40
2023-02-25T03:42:44.430Z,2.10
2023-02-25T03:45:13.287Z,3.30
2023-02-25T03:47:41.304Z,2.55
2023-02-25T03:50:19.423Z,2.92
2023-02-25T03:52:52.781Z,3.30
2023-02-25T03:55:39.207Z,2.15
2023-02-25T03:58:08.300Z,1.90
2023-02-25T04:00:35.935Z,2.25
2023-02-25T04:03:03.746Z,2.40
2023-02-25T04:05:31.383Z,3.10
2023-02-25T04:08:00.119Z,2.72
2023-02-25T04:10:31.657Z,3.08
2023-02-25T04:13:00.544Z,2.05
2023-02-25T04:15:29.573Z,2.97
2023-02-25T04:17:57.338Z,3.10
2023-02-25T04:20:26.005Z,3.40
2023-02-25T04:22:53.674Z,2.38
2023-02-25T04:25:22.337Z,2.83
2023-02-25T04:27:49.960Z,2.88
2023-02-25T04:30:19.040Z,3.13
2023-02-25T04:32:46.646Z,3.25
2023-02-25T04:35:14.410Z,2.30
2023-02-25T04:37:42.505Z,2.92
2023-02-25T04:40:18.451Z,3.05
2023-02-25T04:42:46.213Z,2.60
2023-02-25T04:45:14.315Z,3.53
2023-02-25T04:47:42.186Z,2.90
2023-02-25T04:50:10.729Z,3.05
2023-02-25T04:52:38.703Z,2.83
2023-02-25T04:55:06.945Z,2.75
2023-02-25T04:57:34.566Z,3.03
2023-02-25T05:00:10.911Z,3.33
2023-02-25T05:02:38.453Z,3.78
2023-02-25T05:05:06.717Z,2.88
2023-02-25T05:07:34.440Z,3.28
2023-02-25T05:10:02.156Z,2.30
2023-02-25T05:12:29.660Z,2.47
2023-02-25T05:14:57.401Z,2.72
2023-02-25T05:17:25.134Z,2.42
2023-02-25T05:19:53.863Z,2.13
2023-02-25T05:22:23.052Z,3.00
2023-02-25T05:24:51.219Z,3.20
2023-02-25T05:27:19.002Z,2.90
2023-02-25T05:29:46.815Z,2.90
2023-02-25T05:32:14.431Z,3.13
2023-02-25T05:34:42.430Z,2.58
2023-02-25T05:37:11.522Z,3.70
2023-02-25T05:39:39.188Z,3.03
2023-02-25T05:42:07.638Z,2.90
2023-02-25T05:44:35.373Z,2.35
2023-02-25T05:47:06.255Z,3.85
2023-02-25T05:49:34.075Z,2.42
2023-02-25T05:52:04.706Z,2.58
2023-02-25T05:54:32.332Z,2.78
2023-02-25T05:56:59.789Z,3.47
2023-02-25T05:59:27.591Z,3.72
2023-02-25T06:01:55.093Z,4.07
2023-02-25T06:04:24.148Z,3.53
2023-02-25T06:06:53.366Z,3.22
2023-02-25T06:09:22.786Z,2.50
2023-02-25T06:11:51.428Z,2.72
2023-02-25T06:14:19.446Z,2.95
2023-02-25T06:16:50.009Z,2.20
2023-02-25T06:19:18.394Z,2.55
2023-02-25T06:21:46.054Z,2.45
2023-02-25T06:24:13.866Z,4.32
2023-02-25T06:26:42.661Z,1.80
2023-02-25T06:29:11.118Z,2.25
2023-02-25T06:31:38.665Z,2.20
2023-02-25T06:34:07.753Z,2.20
2023-02-25T06:36:35.564Z,2.38
2023-02-25T06:39:03.071Z,2.70
2023-02-25T06:41:32.191Z,2.38
2023-02-25T06:44:00.121Z,2.25
2023-02-25T06:46:28.327Z,2.80
2023-02-25T06:48:57.492Z,2.10
2023-02-25T06:51:26.056Z,2.60
2023-02-25T06:53:53.580Z,2.53
2023-02-25T06:56:23.002Z,2.40
2023-02-25T06:58:53.278Z,2.10
2023-02-25T07:01:21.575Z,2.97
2023-02-25T07:03:49.630Z,2.55
2023-02-25T07:06:18.403Z,2.92
2023-02-25T07:08:46.633Z,3.08
2023-02-25T07:11:15.693Z,2.22
2023-02-25T07:13:43.855Z,2.88
2023-02-25T07:16:12.849Z,2.33
2023-02-25T07:18:41.328Z,2.35
2023-02-25T07:21:09.099Z,2.92
2023-02-25T07:23:37.011Z,3.55
2023-02-25T07:26:08.791Z,3.50
2023-02-25T07:28:37.219Z,2.35
2023-02-25T07:31:06.269Z,2.40
2023-02-25T07:33:34.982Z,2.45
2023-02-25T07:36:02.613Z,2.75
2023-02-25T07:38:30.186Z,2.65
2023-02-25T07:40:59.040Z,2.65
2023-02-25T07:43:26.654Z,2.80
2023-02-25T07:45:54.209Z,2.03
2023-02-25T07:48:22.445Z,2.83
2023-02-25T07:50:51.266Z,2.30
2023-02-25T07:53:22.567Z,2.50
2023-02-25T07:55:52.287Z,3.03
2023-02-25T07:58:19.828Z,2.90
2023-02-25T08:00:47.804Z,2.33
2023-02-25T08:03:15.469Z,2.55
2023-02-25T08:05:42.970Z,2.25
2023-02-25T08:08:10.507Z,3.13
2023-02-25T08:10:38.280Z,4.18
2023-02-25T08:13:06.668Z,2.67
2023-02-25T08:15:35.129Z,2.83
2023-02-25T08:18:03.708Z,3.15
2023-02-25T08:20:31.250Z,2.83
2023-02-25T08:22:59.262Z,2.97
2023-02-25T08:25:27.612Z,2.47
2023-02-25T08:27:55.161Z,2.17
2023-02-25T08:30:24.022Z,3.13
2023-02-25T08:32:52.564Z,2.67
2023-02-25T08:35:21.173Z,2.85
2023-02-25T08:37:49.863Z,2.10
2023-02-25T08:40:19.871Z,2.90
2023-02-25T08:42:48.784Z,2.42
2023-02-25T08:45:16.185Z,3.25
2023-02-25T08:47:43.837Z,3.20
2023-02-25T08:50:12.889Z,3.40
2023-02-25T08:52:42.309Z,3.30
2023-02-25T08:55:13.069Z,2.78
2023-02-25T08:57:40.856Z,2.53
2023-02-25T09:00:09.859Z,3.22
2023-02-25T09:02:40.433Z,2.28
2023-02-25T09:07:35.624Z,2.72
2023-02-25T09:10:07.066Z,2.88
2023-02-25T09:12:36.460Z,2.90
2023-02-25T09:15:04.013Z,2.53
2023-02-25T09:17:32.014Z,2.45
2023-02-25T09:20:01.679Z,2.65
2023-02-25T09:22:32.061Z,2.22
2023-02-25T09:24:59.947Z,2.30
2023-02-25T09:27:28.833Z,2.47
2023-02-25T09:29:56.534Z,2.47
2023-02-25T09:32:24.540Z,3.03
2023-02-25T09:34:52.877Z,2.35
2023-02-25T09:37:22.320Z,2.60
2023-02-25T09:39:50.061Z,2.83
2023-02-25T09:42:27.544Z,2.88
2023-02-25T09:44:59.289Z,2.60
2023-02-25T09:47:33.916Z,1.58
2023-02-25T09:50:01.631Z,1.65
2023-02-25T09:52:34.358Z,1.45
2023-02-25T09:55:05.193Z,1.85
2023-02-25T09:57:36.579Z,1.10
2023-02-25T10:00:12.073Z,1.27
2023-02-25T10:02:44.257Z,1.50
2023-02-25T10:05:18.451Z,1.58
2023-02-25T10:08:04.419Z,1.02
2023-02-25T10:10:39.552Z,0.88
2023-02-25T10:13:25.412Z,0.98
2023-02-25T10:16:07.058Z,1.65
2023-02-25T10:18:37.578Z,1.15
2023-02-25T10:21:25.389Z,1.10
2023-02-25T10:23:56.551Z,1.17
2023-02-25T10:26:30.746Z,0.93
2023-02-25T10:29:01.480Z,1.83
2023-02-25T10:31:30.802Z,1.13
2023-02-25T10:33:59.650Z,1.10
2023-02-25T10:36:39.649Z,1.40
2023-02-25T10:39:08.118Z,1.08
2023-02-25T10:41:36.431Z,1.20
2023-02-25T10:44:04.093Z,1.85
2023-02-25T10:46:35.609Z,1.02
2023-02-25T10:49:04.638Z,1.38
2023-02-25T10:51:32.742Z,1.38
2023-02-25T10:54:03.110Z,1.13
2023-02-25T10:56:35.815Z,2.60
2023-02-25T10:59:05.058Z,1.40
2023-02-25T11:01:51.264Z,1.38
2023-02-25T11:04:22.042Z,1.60
2023-02-25T11:06:51.201Z,1.70
2023-02-25T11:09:22.620Z,1.52
2023-02-25T11:11:59.778Z,1.20
2023-02-25T11:14:38.218Z,2.22
2023-02-25T11:17:16.330Z,1.00
2023-02-25T11:20:06.454Z,1.30
2023-02-25T11:22:40.155Z,0.75
2023-02-25T11:25:09.117Z,0.98
2023-02-25T11:27:39.391Z,1.15
2023-02-25T11:30:13.398Z,1.08
2023-02-25T11:32:47.124Z,1.45
2023-02-25T11:35:19.885Z,1.42
2023-02-25T11:37:51.364Z,1.20
2023-02-25T11:40:29.882Z,1.42
2023-02-25T11:43:17.736Z,1.85
2023-02-25T11:46:02.559Z,1.88
2023-02-25T11:48:37.765Z,1.55
2023-02-25T11:51:06.288Z,1.08
2023-02-25T11:53:43.588Z,1.48
2023-02-25T11:56:19.186Z,1.30
2023-02-25T11:58:46.939Z,2.55
2023-02-25T12:01:17.112Z,1.38
2023-02-25T12:03:45.375Z,2.25
2023-02-25T12:06:33.374Z,1.45
2023-02-25T12:09:14.370Z,1.95
2023-02-25T12:11:56.897Z,1.95
2023-02-25T12:14:27.618Z,1.23
2023-02-25T12:17:04.652Z,1.85
2023-02-25T12:19:41.598Z,1.30
2023-02-25T12:22:15.614Z,1.70
2023-02-25T12:24:54.008Z,1.60
2023-02-25T12:27:52.676Z,1.30
2023-02-25T12:30:45.231Z,1.60
2023-02-25T12:33:13.001Z,1.90
2023-02-25T12:35:47.099Z,1.30
2023-02-25T12:38:38.378Z,1.33
2023-02-25T12:41:07.503Z,1.45
2023-02-25T12:44:10.717Z,1.50
2023-02-25T12:50:42.946Z,1.55
2023-02-25T12:53:14.371Z,1.77
2023-02-25T12:55:42.079Z,1.48
2023-02-25T12:58:33.578Z,1.50
2023-02-25T13:01:14.736Z,1.40
2023-02-25T13:04:02.263Z,1.50
2023-02-25T13:06:29.967Z,1.35
2023-02-25T13:09:09.431Z,1.42
2023-02-25T13:11:48.251Z,1.60
2023-02-25T13:14:24.943Z,1.27
2023-02-25T13:16:58.854Z,1.63
2023-02-25T13:19:46.982Z,2.17
2023-02-25T13:22:17.737Z,1.33
2023-02-25T13:25:00.847Z,1.60
2023-02-25T13:27:36.730Z,1.48
2023-02-25T13:30:22.716Z,1.27
2023-02-25T13:32:58.550Z,1.88
2023-02-25T13:35:46.997Z,2.30
2023-02-25T13:38:15.129Z,1.70
2023-02-25T13:41:01.454Z,1.50
2023-02-25T13:43:30.260Z,1.75
2023-02-25T13:46:27.678Z,1.80
2023-02-25T13:49:13.362Z,1.50
2023-02-25T13:51:51.123Z,1.52
2023-02-25T13:54:22.922Z,1.67
2023-02-25T13:57:11.358Z,2.20
2023-02-25T13:59:42.478Z,1.70
2023-02-25T14:02:19.517Z,2.35
2023-02-25T14:05:07.865Z,1.60
2023-02-25T14:07:38.358Z,1.83
2023-02-25T14:12:46.082Z,1.42
2023-02-25T14:15:33.939Z,1.60
2023-02-25T14:18:09.367Z,1.25
2023-02-25T14:20:55.144Z,1.60
2023-02-25T14:23:26.489Z,1.65
2023-02-25T14:26:13.453Z,1.42
2023-02-25T14:28:53.789Z,1.88
2023-02-25T14:34:09.887Z,1.08
2023-02-25T14:36:52.904Z,1.30
2023-02-25T14:39:29.874Z,1.20
2023-02-25T14:42:12.827Z,1.20
2023-02-25T14:44:56.228Z,1.30
2023-02-25T14:47:28.934Z,1.17
2023-02-25T14:50:12.779Z,1.17
2023-02-25T14:52:59.473Z,1.50
2023-02-25T14:55:41.943Z,1.05
2023-02-25T14:58:32.847Z,1.23
2023-02-25T15:01:06.638Z,1.00
2023-02-25T15:03:44.856Z,1.23
2023-02-25T15:06:25.338Z,1.25
2023-02-25T15:11:30.631Z,1.33
2023-02-25T15:14:03.573Z,1.35
2023-02-25T15:16:31.207Z,1.63
2023-02-25T15:19:08.400Z,1.20
2023-02-25T15:21:40.048Z,1.38
2023-02-25T15:24:30.717Z,1.20
2023-02-25T15:26:59.753Z,0.90
2023-02-25T15:29:30.423Z,1.13
2023-02-25T15:32:23.488Z,1.33
2023-02-25T15:34:57.688Z,1.15
2023-02-25T15:37:28.584Z,1.25
2023-02-25T15:39:57.162Z,0.98
2023-02-25T15:42:44.533Z,0.95
2023-02-25T15:45:27.842Z,1.10
2023-02-25T15:48:11.393Z,1.13
2023-02-25T15:50:48.357Z,1.20
2023-02-25T15:53:23.707Z,1.40
2023-02-25T15:56:17.679Z,2.00
2023-02-25T15:58:52.742Z,1.08
2023-02-25T16:01:49.574Z,1.15
2023-02-25T16:06:46.736Z,1.25
2023-02-25T16:09:18.947Z,1.40
2023-02-25T16:11:47.342Z,1.10
2023-02-25T16:14:47.372Z,1.35
2023-02-25T16:17:21.903Z,1.88
2023-02-25T16:19:55.592Z,1.15
2023-02-25T16:22:24.980Z,1.95
2023-02-25T16:24:54.688Z,1.40
2023-02-25T16:27:46.095Z,1.80
2023-02-25T16:30:16.909Z,1.60
2023-02-25T16:33:11.278Z,2.22
2023-02-25T16:35:41.847Z,1.90
2023-02-25T16:38:18.842Z,1.50
2023-02-25T16:40:49.831Z,1.70
2023-02-25T16:43:23.025Z,2.08
2023-02-25T16:46:02.021Z,1.80
2023-02-25T16:48:32.522Z,2.13
2023-02-25T16:51:08.926Z,1.92
2023-02-25T16:53:40.956Z,2.13
2023-02-25T16:56:14.826Z,2.97
2023-02-25T16:58:42.516Z,1.52
2023-02-25T17:01:23.695Z,1.55
2023-02-25T17:03:54.469Z,2.22
2023-02-25T17:06:22.739Z,1.52
2023-02-25T17:08:55.224Z,1.60
2023-02-25T17:11:24.890Z,1.75
2023-02-25T17:13:56.005Z,1.47
2023-02-25T17:16:53.985Z,1.70
2023-02-25T17:19:22.864Z,1.77
2023-02-25T17:22:00.360Z,2.38
2023-02-25T17:24:30.595Z,1.60
2023-02-25T17:27:01.469Z,1.65
2023-02-25T17:29:36.758Z,1.95
2023-02-25T17:32:13.140Z,2.40
2023-02-25T17:34:41.563Z,1.42
2023-02-25T17:37:10.357Z,1.65
2023-02-25T17:39:39.929Z,1.67
2023-02-25T17:42:28.090Z,1.40
2023-02-25T17:44:56.083Z,1.50
2023-02-25T17:47:25.500Z,2.00
2023-02-25T17:49:53.795Z,1.42
2023-02-25T17:52:27.997Z,1.20
2023-02-25T17:55:05.923Z,2.25
2023-02-25T17:57:34.827Z,2.00
2023-02-25T18:00:14.348Z,1.52
2023-02-25T18:02:44.433Z,1.40
2023-02-25T18:05:22.263Z,2.47
2023-02-25T18:07:59.081Z,1.65
2023-02-25T18:10:26.622Z,1.63
2023-02-25T18:12:55.895Z,1.73
2023-02-25T18:15:28.856Z,1.77
2023-02-25T18:17:58.533Z,1.50
2023-02-25T18:20:26.226Z,2.05
2023-02-25T18:22:55.483Z,1.60
2023-02-25T18:25:36.251Z,2.03
2023-02-25T18:28:05.907Z,4.35
2023-02-25T18:30:36.505Z,10.20
2023-02-25T18:33:05.761Z,4.10
2023-02-25T18:35:34.098Z,10.27
2023-02-25T18:38:01.803Z,8.82
2023-02-25T18:40:31.771Z,5.90
2023-02-25T18:43:00.168Z,6.78
2023-02-25T18:45:29.176Z,3.85
2023-02-25T18:47:57.005Z,3.30
2023-02-25T18:50:25.869Z,3.05
2023-02-25T18:52:54.650Z,1.98
2023-02-25T18:55:23.770Z,2.90
2023-02-25T18:57:53.108Z,3.08
2023-02-25T19:00:23.262Z,2.40
2023-02-25T19:03:05.390Z,2.03
2023-02-25T19:05:34.273Z,2.22
2023-02-25T19:08:02.366Z,1.95
2023-02-25T19:10:35.057Z,2.30
2023-02-25T19:13:05.201Z,2.35
2023-02-25T19:15:33.650Z,2.20
2023-02-25T19:18:01.343Z,2.58
2023-02-25T19:20:28.956Z,2.25
2023-02-25T19:22:56.578Z,2.33
2023-02-25T19:25:28.643Z,2.55
2023-02-25T19:27:57.784Z,2.08
2023-02-25T19:30:26.994Z,2.53
2023-02-25T19:32:55.718Z,2.78
2023-02-25T19:35:23.654Z,2.50
2023-02-25T19:37:52.817Z,2.42
2023-02-25T19:40:21.433Z,2.45
2023-02-25T19:42:49.252Z,2.80
2023-02-25T19:45:19.080Z,2.30
2023-02-25T19:47:47.794Z,2.80
2023-02-25T19:50:16.961Z,2.20
2023-02-25T19:52:44.980Z,2.20
2023-02-25T19:55:13.899Z,2.10
2023-02-25T19:57:42.225Z,2.30
2023-02-25T20:00:30.725Z,2.80
2023-02-25T20:02:59.578Z,2.10
2023-02-25T20:05:27.327Z,1.83
2023-02-25T20:07:55.054Z,1.90
2023-02-25T20:10:23.800Z,2.08
2023-02-25T20:12:54.515Z,2.40
2023-02-25T20:15:22.762Z,2.05
2023-02-25T20:17:59.400Z,2.13
2023-02-25T20:20:26.950Z,2.20
2023-02-25T20:22:55.185Z,2.38
2023-02-25T20:25:24.955Z,2.00
2023-02-25T20:27:55.666Z,3.00
2023-02-25T20:30:24.030Z,2.13
2023-02-25T20:32:53.132Z,2.33
2023-02-25T20:35:26.404Z,2.25
2023-02-25T20:38:24.913Z,2.72
2023-02-25T20:40:53.765Z,2.88
2023-02-25T20:43:22.886Z,2.10
2023-02-25T20:45:51.436Z,1.98
2023-02-25T20:48:27.510Z,2.08
2023-02-25T20:50:55.372Z,1.90
2023-02-25T20:53:25.608Z,2.28
2023-02-25T20:55:55.019Z,1.92
2023-02-25T20:58:23.885Z,2.40
2023-02-25T21:00:54.317Z,2.95
2023-02-25T21:03:23.452Z,2.63
2023-02-25T21:05:51.863Z,2.08
2023-02-25T21:08:19.932Z,2.25
2023-02-25T21:10:49.319Z,2.15
2023-02-25T21:13:17.234Z,2.72
2023-02-25T21:15:45.134Z,2.40
2023-02-25T21:18:13.060Z,2.47
2023-02-25T21:20:40.722Z,2.33
2023-02-25T21:23:11.175Z,2.67
2023-02-25T21:25:39.671Z,2.17
2023-02-25T21:28:08.096Z,3.20
2023-02-25T21:30:36.068Z,3.05
2023-02-25T21:33:04.010Z,3.45
2023-02-25T21:35:31.549Z,4.80
2023-02-25T21:37:59.627Z,3.30
2023-02-25T21:40:27.636Z,3.58
2023-02-25T21:42:56.623Z,3.28
2023-02-25T21:45:24.071Z,3.35
2023-02-25T21:47:52.680Z,3.60
2023-02-25T21:50:22.916Z,3.63
2023-02-25T21:52:52.660Z,3.85
2023-02-25T21:55:22.400Z,3.85
2023-02-25T21:57:56.424Z,5.22
2023-02-25T22:00:24.342Z,5.45
2023-02-25T22:02:52.214Z,5.03
2023-02-25T22:05:21.288Z,4.00
2023-02-25T22:07:48.995Z,3.83
2023-02-25T22:10:17.288Z,3.83
2023-02-25T22:12:44.859Z,4.20
2023-02-25T22:15:12.809Z,3.88
2023-02-25T22:17:43.577Z,3.72
2023-02-25T22:20:12.058Z,3.30
2023-02-25T22:22:39.910Z,3.47
2023-02-25T22:25:07.625Z,3.30
2023-02-25T22:27:35.514Z,3.47
2023-02-25T22:30:03.186Z,2.95
2023-02-25T22:32:30.925Z,3.30
2023-02-25T22:35:02.309Z,3.17
2023-02-25T22:37:29.901Z,3.38
2023-02-25T22:39:57.672Z,3.75
2023-02-25T22:42:27.167Z,3.22
2023-02-25T22:44:54.781Z,3.70
2023-02-25T22:47:23.282Z,4.82
2023-02-25T22:49:51.456Z,3.38
2023-02-25T22:52:22.491Z,3.40
2023-02-25T22:54:56.942Z,3.60
2023-02-25T22:57:25.126Z,4.00
2023-02-25T22:59:53.454Z,3.30
2023-02-25T23:02:21.308Z,4.38
2023-02-25T23:04:49.074Z,3.25
2023-02-25T23:07:17.071Z,3.45
2023-02-25T23:09:45.835Z,3.25
2023-02-25T23:12:13.947Z,3.00
2023-02-25T23:14:41.429Z,3.05
2023-02-25T23:17:09.276Z,3.38
2023-02-25T23:19:36.990Z,4.15
2023-02-25T23:22:05.722Z,3.05
2023-02-25T23:24:33.223Z,2.90
2023-02-25T23:27:01.298Z,3.35
2023-02-25T23:29:29.961Z,2.97
2023-02-25T23:31:57.585Z,2.90
2023-02-25T23:34:26.148Z,2.92
2023-02-25T23:36:55.726Z,2.92
2023-02-25T23:39:23.523Z,3.10
2023-02-25T23:41:52.237Z,3.47
2023-02-25T23:44:19.827Z,3.28
2023-02-25T23:46:47.529Z,3.35
2023-02-25T23:49:16.991Z,2.72
2023-02-25T23:51:45.799Z,2.77
2023-02-25T23:54:15.116Z,3.30
2023-02-25T23:56:42.937Z,3.30
2023-02-25T23:59:10.833Z,2.97
